sensor_id;sensor_type;location;lat;lon;timestamp;P1;durP1;ratioP1;P2;durP2;ratioP2
41927;SDS011;27616;51.420;6.788;2023-02-23T00:01:39;69.23;;;43.20;;
41927;SDS011;27616;51.420;6.788;2023-02-23T00:04:06;67.53;;;41.30;;
41927;SDS011;27616;51.420;6.788;2023-02-23T00:06:33;71.07;;;42.40;;
41927;SDS011;27616;51.420;6.788;2023-02-23T00:09:00;72.77;;;43.50;;
41927;SDS011;27616;51.420;6.788;2023-02-23T00:11:47;69.57;;;43.17;;
41927;SDS011;27616;51.420;6.788;2023-02-23T00:14:20;70.73;;;43.33;;
41927;SDS011;27616;51.420;6.788;2023-02-23T00:16:48;73.57;;;43.60;;
41927;SDS011;27616;51.420;6.788;2023-02-23T00:19:14;71.70;;;43.47;;
41927;SDS011;27616;51.420;6.788;2023-02-23T00:21:40;79.57;;;44.40;;
41927;SDS011;27616;51.420;6.788;2023-02-23T00:24:07;76.33;;;45.50;;
41927;SDS011;27616;51.420;6.788;2023-02-23T00:26:38;85.17;;;47.47;;
41927;SDS011;27616;51.420;6.788;2023-02-23T00:29:27;86.60;;;48.20;;
41927;SDS011;27616;51.420;6.788;2023-02-23T00:31:52;88.20;;;48.23;;
41927;SDS011;27616;51.420;6.788;2023-02-23T00:34:20;88.80;;;49.00;;
41927;SDS011;27616;51.420;6.788;2023-02-23T00:36:48;88.03;;;49.90;;
41927;SDS011;27616;51.420;6.788;2023-02-23T00:39:15;96.53;;;51.57;;
41927;SDS011;27616;51.420;6.788;2023-02-23T00:41:43;95.57;;;49.67;;
41927;SDS011;27616;51.420;6.788;2023-02-23T00:44:10;97.97;;;51.97;;
41927;SDS011;27616;51.420;6.788;2023-02-23T00:46:36;100.27;;;50.93;;
41927;SDS011;27616;51.420;6.788;2023-02-23T00:49:01;104.50;;;52.37;;
41927;SDS011;27616;51.420;6.788;2023-02-23T00:51:29;103.50;;;52.00;;
41927;SDS011;27616;51.420;6.788;2023-02-23T00:53:55;105.77;;;54.40;;
41927;SDS011;27616;51.420;6.788;2023-02-23T00:56:22;100.77;;;53.40;;
41927;SDS011;27616;51.420;6.788;2023-02-23T00:58:48;106.17;;;53.53;;
41927;SDS011;27616;51.420;6.788;2023-02-23T01:01:14;107.93;;;53.33;;
41927;SDS011;27616;51.420;6.788;2023-02-23T01:03:41;101.50;;;53.20;;
41927;SDS011;27616;51.420;6.788;2023-02-23T01:06:09;109.63;;;53.03;;
41927;SDS011;27616;51.420;6.788;2023-02-23T01:08:38;108.22;;;52.25;;
41927;SDS011;27616;51.420;6.788;2023-02-23T01:11:06;104.25;;;52.88;;
41927;SDS011;27616;51.420;6.788;2023-02-23T01:13:34;101.30;;;51.90;;
41927;SDS011;27616;51.420;6.788;2023-02-23T01:16:08;105.30;;;52.87;;
41927;SDS011;27616;51.420;6.788;2023-02-23T01:18:36;101.93;;;51.90;;
41927;SDS011;27616;51.420;6.788;2023-02-23T01:21:03;102.40;;;51.93;;
41927;SDS011;27616;51.420;6.788;2023-02-23T01:23:32;99.57;;;51.40;;
41927;SDS011;27616;51.420;6.788;2023-02-23T01:25:58;98.37;;;52.03;;
41927;SDS011;27616;51.420;6.788;2023-02-23T01:28:24;98.23;;;51.50;;
41927;SDS011;27616;51.420;6.788;2023-02-23T01:30:50;104.60;;;52.80;;
41927;SDS011;27616;51.420;6.788;2023-02-23T01:33:15;100.23;;;53.30;;
41927;SDS011;27616;51.420;6.788;2023-02-23T01:35:42;104.70;;;52.87;;
41927;SDS011;27616;51.420;6.788;2023-02-23T01:38:08;97.20;;;52.10;;
41927;SDS011;27616;51.420;6.788;2023-02-23T01:40:34;105.73;;;52.27;;
41927;SDS011;27616;51.420;6.788;2023-02-23T01:43:13;101.10;;;50.83;;
41927;SDS011;27616;51.420;6.788;2023-02-23T01:45:41;110.07;;;53.23;;
41927;SDS011;27616;51.420;6.788;2023-02-23T01:48:19;111.23;;;54.47;;
41927;SDS011;27616;51.420;6.788;2023-02-23T01:50:59;116.78;;;54.47;;
41927;SDS011;27616;51.420;6.788;2023-02-23T01:53:30;118.93;;;55.13;;
41927;SDS011;27616;51.420;6.788;2023-02-23T01:56:08;119.87;;;55.27;;
41927;SDS011;27616;51.420;6.788;2023-02-23T01:58:41;117.27;;;54.00;;
41927;SDS011;27616;51.420;6.788;2023-02-23T02:01:11;116.03;;;55.33;;
41927;SDS011;27616;51.420;6.788;2023-02-23T02:03:38;115.97;;;53.37;;
41927;SDS011;27616;51.420;6.788;2023-02-23T02:06:11;119.20;;;52.57;;
41927;SDS011;27616;51.420;6.788;2023-02-23T02:08:40;112.00;;;54.72;;
41927;SDS011;27616;51.420;6.788;2023-02-23T02:11:11;103.27;;;51.60;;
41927;SDS011;27616;51.420;6.788;2023-02-23T02:43:48;108.77;;;54.03;;
41927;SDS011;27616;51.420;6.788;2023-02-23T02:46:26;110.40;;;54.13;;
41927;SDS011;27616;51.420;6.788;2023-02-23T02:49:05;109.67;;;55.30;;
41927;SDS011;27616;51.420;6.788;2023-02-23T02:56:39;105.70;;;53.43;;
41927;SDS011;27616;51.420;6.788;2023-02-23T02:59:11;114.17;;;55.27;;
41927;SDS011;27616;51.420;6.788;2023-02-23T03:01:57;119.67;;;56.27;;
41927;SDS011;27616;51.420;6.788;2023-02-23T03:04:42;122.87;;;56.40;;
41927;SDS011;27616;51.420;6.788;2023-02-23T03:07:33;125.07;;;56.13;;
41927;SDS011;27616;51.420;6.788;2023-02-23T03:14:01;126.77;;;57.73;;
41927;SDS011;27616;51.420;6.788;2023-02-23T03:17:05;128.77;;;57.70;;
41927;SDS011;27616;51.420;6.788;2023-02-23T03:23:57;125.90;;;57.15;;
41927;SDS011;27616;51.420;6.788;2023-02-23T03:26:33;134.40;;;58.03;;
41927;SDS011;27616;51.420;6.788;2023-02-23T03:29:43;138.77;;;59.70;;
41927;SDS011;27616;51.420;6.788;2023-02-23T03:32:51;134.93;;;59.27;;
41927;SDS011;27616;51.420;6.788;2023-02-23T03:41:28;131.93;;;58.00;;
41927;SDS011;27616;51.420;6.788;2023-02-23T03:44:16;133.53;;;60.53;;
41927;SDS011;27616;51.420;6.788;2023-02-23T03:47:05;140.20;;;59.33;;
41927;SDS011;27616;51.420;6.788;2023-02-23T03:49:53;133.60;;;56.93;;
41927;SDS011;27616;51.420;6.788;2023-02-23T03:52:45;127.80;;;59.47;;
41927;SDS011;27616;51.420;6.788;2023-02-23T03:55:36;137.47;;;60.67;;
41927;SDS011;27616;51.420;6.788;2023-02-23T03:58:29;126.97;;;57.60;;
41927;SDS011;27616;51.420;6.788;2023-02-23T04:01:17;130.57;;;57.70;;
41927;SDS011;27616;51.420;6.788;2023-02-23T04:04:03;127.93;;;59.27;;
41927;SDS011;27616;51.420;6.788;2023-02-23T04:06:52;135.93;;;60.23;;
41927;SDS011;27616;51.420;6.788;2023-02-23T04:09:40;124.53;;;59.10;;
41927;SDS011;27616;51.420;6.788;2023-02-23T04:15:29;127.30;;;57.67;;
41927;SDS011;27616;51.420;6.788;2023-02-23T04:18:02;135.93;;;58.80;;
41927;SDS011;27616;51.420;6.788;2023-02-23T04:20:28;130.07;;;60.47;;
41927;SDS011;27616;51.420;6.788;2023-02-23T04:22:54;135.97;;;59.70;;
41927;SDS011;27616;51.420;6.788;2023-02-23T04:25:20;131.57;;;60.43;;
41927;SDS011;27616;51.420;6.788;2023-02-23T04:27:51;143.57;;;60.77;;
41927;SDS011;27616;51.420;6.788;2023-02-23T04:30:17;137.77;;;61.33;;
41927;SDS011;27616;51.420;6.788;2023-02-23T04:32:44;135.53;;;60.13;;
41927;SDS011;27616;51.420;6.788;2023-02-23T04:35:11;133.77;;;60.47;;
41927;SDS011;27616;51.420;6.788;2023-02-23T04:37:37;134.50;;;62.60;;
41927;SDS011;27616;51.420;6.788;2023-02-23T04:40:04;128.53;;;59.77;;
41927;SDS011;27616;51.420;6.788;2023-02-23T04:42:31;129.63;;;62.13;;
41927;SDS011;27616;51.420;6.788;2023-02-23T04:44:56;132.37;;;61.40;;
41927;SDS011;27616;51.420;6.788;2023-02-23T04:47:23;145.43;;;61.47;;
41927;SDS011;27616;51.420;6.788;2023-02-23T04:49:49;134.03;;;61.53;;
41927;SDS011;27616;51.420;6.788;2023-02-23T04:52:14;130.77;;;59.13;;
41927;SDS011;27616;51.420;6.788;2023-02-23T04:54:40;127.87;;;58.93;;
41927;SDS011;27616;51.420;6.788;2023-02-23T04:57:07;129.33;;;57.73;;
41927;SDS011;27616;51.420;6.788;2023-02-23T04:59:34;141.63;;;60.70;;
41927;SDS011;27616;51.420;6.788;2023-02-23T05:01:59;128.53;;;59.80;;
41927;SDS011;27616;51.420;6.788;2023-02-23T05:04:25;130.03;;;60.87;;
41927;SDS011;27616;51.420;6.788;2023-02-23T05:06:51;124.73;;;60.67;;
41927;SDS011;27616;51.420;6.788;2023-02-23T05:09:17;128.40;;;58.20;;
41927;SDS011;27616;51.420;6.788;2023-02-23T05:11:42;122.50;;;58.20;;
41927;SDS011;27616;51.420;6.788;2023-02-23T05:14:08;129.00;;;59.03;;
41927;SDS011;27616;51.420;6.788;2023-02-23T05:16:37;122.93;;;58.70;;
41927;SDS011;27616;51.420;6.788;2023-02-23T05:19:03;125.80;;;58.73;;
41927;SDS011;27616;51.420;6.788;2023-02-23T05:21:29;125.73;;;57.80;;
41927;SDS011;27616;51.420;6.788;2023-02-23T05:23:55;124.70;;;57.93;;
41927;SDS011;27616;51.420;6.788;2023-02-23T05:26:21;119.60;;;57.70;;
41927;SDS011;27616;51.420;6.788;2023-02-23T05:28:47;125.17;;;57.80;;
41927;SDS011;27616;51.420;6.788;2023-02-23T05:31:13;129.27;;;59.97;;
41927;SDS011;27616;51.420;6.788;2023-02-23T05:33:39;125.23;;;59.20;;
41927;SDS011;27616;51.420;6.788;2023-02-23T05:36:09;132.10;;;60.35;;
41927;SDS011;27616;51.420;6.788;2023-02-23T05:38:35;133.20;;;61.30;;
41927;SDS011;27616;51.420;6.788;2023-02-23T05:41:06;139.80;;;60.67;;
41927;SDS011;27616;51.420;6.788;2023-02-23T05:43:36;136.00;;;60.13;;
41927;SDS011;27616;51.420;6.788;2023-02-23T05:46:07;138.30;;;60.97;;
41927;SDS011;27616;51.420;6.788;2023-02-23T05:48:39;146.97;;;65.43;;
41927;SDS011;27616;51.420;6.788;2023-02-23T05:51:05;154.43;;;65.47;;
41927;SDS011;27616;51.420;6.788;2023-02-23T05:53:33;148.90;;;63.25;;
41927;SDS011;27616;51.420;6.788;2023-02-23T05:56:03;150.50;;;66.13;;
41927;SDS011;27616;51.420;6.788;2023-02-23T05:58:30;149.90;;;65.20;;
41927;SDS011;27616;51.420;6.788;2023-02-23T06:00:56;157.50;;;66.03;;
41927;SDS011;27616;51.420;6.788;2023-02-23T06:03:22;147.10;;;63.67;;
41927;SDS011;27616;51.420;6.788;2023-02-23T06:05:54;144.33;;;65.67;;
41927;SDS011;27616;51.420;6.788;2023-02-23T06:08:23;153.57;;;65.03;;
41927;SDS011;27616;51.420;6.788;2023-02-23T06:10:49;140.57;;;63.17;;
41927;SDS011;27616;51.420;6.788;2023-02-23T06:13:15;153.33;;;66.13;;
41927;SDS011;27616;51.420;6.788;2023-02-23T06:15:42;153.07;;;64.27;;
41927;SDS011;27616;51.420;6.788;2023-02-23T06:18:08;153.17;;;65.00;;
41927;SDS011;27616;51.420;6.788;2023-02-23T06:20:34;153.20;;;64.07;;
41927;SDS011;27616;51.420;6.788;2023-02-23T06:23:00;152.37;;;64.97;;
41927;SDS011;27616;51.420;6.788;2023-02-23T06:25:26;155.30;;;64.87;;
41927;SDS011;27616;51.420;6.788;2023-02-23T06:27:51;136.83;;;62.30;;
41927;SDS011;27616;51.420;6.788;2023-02-23T06:30:19;152.13;;;62.73;;
41927;SDS011;27616;51.420;6.788;2023-02-23T06:32:45;139.37;;;61.43;;
41927;SDS011;27616;51.420;6.788;2023-02-23T06:35:14;136.38;;;60.30;;
41927;SDS011;27616;51.420;6.788;2023-02-23T06:37:40;146.43;;;60.60;;
41927;SDS011;27616;51.420;6.788;2023-02-23T06:40:06;148.20;;;62.47;;
41927;SDS011;27616;51.420;6.788;2023-02-23T06:42:32;149.47;;;59.43;;
41927;SDS011;27616;51.420;6.788;2023-02-23T06:45:00;160.43;;;60.70;;
41927;SDS011;27616;51.420;6.788;2023-02-23T06:47:29;155.60;;;60.42;;
41927;SDS011;27616;51.420;6.788;2023-02-23T06:49:54;154.57;;;60.53;;
41927;SDS011;27616;51.420;6.788;2023-02-23T06:52:20;157.70;;;62.63;;
41927;SDS011;27616;51.420;6.788;2023-02-23T06:54:48;169.90;;;62.10;;
41927;SDS011;27616;51.420;6.788;2023-02-23T06:57:14;170.73;;;63.73;;
41927;SDS011;27616;51.420;6.788;2023-02-23T06:59:40;160.87;;;62.67;;
41927;SDS011;27616;51.420;6.788;2023-02-23T07:02:07;158.97;;;61.83;;
41927;SDS011;27616;51.420;6.788;2023-02-23T07:04:36;159.10;;;61.47;;
41927;SDS011;27616;51.420;6.788;2023-02-23T07:07:02;163.53;;;62.97;;
41927;SDS011;27616;51.420;6.788;2023-02-23T07:09:27;167.23;;;63.57;;
41927;SDS011;27616;51.420;6.788;2023-02-23T07:11:53;165.97;;;61.70;;
41927;SDS011;27616;51.420;6.788;2023-02-23T07:14:19;166.20;;;60.93;;
41927;SDS011;27616;51.420;6.788;2023-02-23T07:16:45;169.97;;;60.50;;
41927;SDS011;27616;51.420;6.788;2023-02-23T07:19:10;174.67;;;60.57;;
41927;SDS011;27616;51.420;6.788;2023-02-23T07:21:36;175.27;;;61.57;;
41927;SDS011;27616;51.420;6.788;2023-02-23T07:24:02;183.97;;;61.20;;
41927;SDS011;27616;51.420;6.788;2023-02-23T07:26:31;165.50;;;57.72;;
41927;SDS011;27616;51.420;6.788;2023-02-23T07:28:58;163.00;;;56.23;;
41927;SDS011;27616;51.420;6.788;2023-02-23T07:31:24;163.60;;;56.37;;
41927;SDS011;27616;51.420;6.788;2023-02-23T07:33:50;151.43;;;55.63;;
41927;SDS011;27616;51.420;6.788;2023-02-23T07:36:19;153.77;;;55.77;;
41927;SDS011;27616;51.420;6.788;2023-02-23T07:38:45;163.73;;;57.00;;
41927;SDS011;27616;51.420;6.788;2023-02-23T07:41:11;162.33;;;56.03;;
41927;SDS011;27616;51.420;6.788;2023-02-23T07:43:37;165.80;;;57.03;;
41927;SDS011;27616;51.420;6.788;2023-02-23T07:46:02;160.43;;;56.40;;
41927;SDS011;27616;51.420;6.788;2023-02-23T07:48:28;165.40;;;55.87;;
41927;SDS011;27616;51.420;6.788;2023-02-23T07:50:54;152.50;;;52.93;;
41927;SDS011;27616;51.420;6.788;2023-02-23T07:53:20;164.20;;;53.63;;
41927;SDS011;27616;51.420;6.788;2023-02-23T07:55:53;166.03;;;56.17;;
41927;SDS011;27616;51.420;6.788;2023-02-23T07:58:20;166.67;;;54.87;;
41927;SDS011;27616;51.420;6.788;2023-02-23T08:00:46;172.10;;;55.13;;
41927;SDS011;27616;51.420;6.788;2023-02-23T08:03:11;167.30;;;54.93;;
41927;SDS011;27616;51.420;6.788;2023-02-23T08:05:37;173.37;;;56.20;;
41927;SDS011;27616;51.420;6.788;2023-02-23T08:08:04;168.30;;;55.90;;
41927;SDS011;27616;51.420;6.788;2023-02-23T08:10:30;168.43;;;54.67;;
41927;SDS011;27616;51.420;6.788;2023-02-23T08:12:56;160.33;;;54.53;;
41927;SDS011;27616;51.420;6.788;2023-02-23T08:15:22;156.73;;;55.17;;
41927;SDS011;27616;51.420;6.788;2023-02-23T08:17:49;143.50;;;52.50;;
41927;SDS011;27616;51.420;6.788;2023-02-23T08:20:15;145.67;;;54.43;;
41927;SDS011;27616;51.420;6.788;2023-02-23T08:22:41;143.23;;;54.03;;
41927;SDS011;27616;51.420;6.788;2023-02-23T08:25:07;143.93;;;51.90;;
41927;SDS011;27616;51.420;6.788;2023-02-23T08:27:34;141.90;;;53.80;;
41927;SDS011;27616;51.420;6.788;2023-02-23T08:30:01;139.67;;;50.87;;
41927;SDS011;27616;51.420;6.788;2023-02-23T08:32:31;138.43;;;51.60;;
41927;SDS011;27616;51.420;6.788;2023-02-23T08:35:01;143.70;;;50.57;;
41927;SDS011;27616;51.420;6.788;2023-02-23T08:37:27;130.97;;;49.40;;
41927;SDS011;27616;51.420;6.788;2023-02-23T08:39:54;120.07;;;48.47;;
41927;SDS011;27616;51.420;6.788;2023-02-23T08:42:20;115.67;;;48.17;;
41927;SDS011;27616;51.420;6.788;2023-02-23T08:44:46;117.23;;;47.10;;
41927;SDS011;27616;51.420;6.788;2023-02-23T08:47:13;121.33;;;47.87;;
41927;SDS011;27616;51.420;6.788;2023-02-23T08:49:47;121.87;;;47.07;;
41927;SDS011;27616;51.420;6.788;2023-02-23T08:52:13;112.67;;;47.00;;
41927;SDS011;27616;51.420;6.788;2023-02-23T08:54:39;119.30;;;47.50;;
41927;SDS011;27616;51.420;6.788;2023-02-23T08:57:04;114.63;;;47.57;;
41927;SDS011;27616;51.420;6.788;2023-02-23T08:59:30;113.33;;;46.60;;
41927;SDS011;27616;51.420;6.788;2023-02-23T09:01:56;122.87;;;48.77;;
41927;SDS011;27616;51.420;6.788;2023-02-23T09:04:22;118.03;;;48.17;;
41927;SDS011;27616;51.420;6.788;2023-02-23T09:06:47;113.00;;;46.50;;
41927;SDS011;27616;51.420;6.788;2023-02-23T09:09:14;112.27;;;46.97;;
41927;SDS011;27616;51.420;6.788;2023-02-23T09:11:40;112.63;;;46.77;;
41927;SDS011;27616;51.420;6.788;2023-02-23T09:14:06;112.10;;;44.40;;
41927;SDS011;27616;51.420;6.788;2023-02-23T09:16:32;107.97;;;42.80;;
41927;SDS011;27616;51.420;6.788;2023-02-23T09:19:00;94.77;;;40.03;;
41927;SDS011;27616;51.420;6.788;2023-02-23T09:21:26;91.73;;;38.80;;
41927;SDS011;27616;51.420;6.788;2023-02-23T09:23:54;99.10;;;38.87;;
41927;SDS011;27616;51.420;6.788;2023-02-23T09:26:20;102.17;;;40.40;;
41927;SDS011;27616;51.420;6.788;2023-02-23T09:28:47;92.87;;;38.70;;
41927;SDS011;27616;51.420;6.788;2023-02-23T09:31:15;85.33;;;35.33;;
41927;SDS011;27616;51.420;6.788;2023-02-23T09:33:43;86.30;;;34.33;;
41927;SDS011;27616;51.420;6.788;2023-02-23T09:36:10;86.27;;;35.60;;
41927;SDS011;27616;51.420;6.788;2023-02-23T09:38:40;82.00;;;33.97;;
41927;SDS011;27616;51.420;6.788;2023-02-23T09:41:15;88.63;;;36.17;;
41927;SDS011;27616;51.420;6.788;2023-02-23T09:46:28;102.20;;;40.47;;
41927;SDS011;27616;51.420;6.788;2023-02-23T09:49:03;86.80;;;38.40;;
41927;SDS011;27616;51.420;6.788;2023-02-23T09:51:36;91.77;;;37.63;;
41927;SDS011;27616;51.420;6.788;2023-02-23T09:54:05;96.67;;;39.33;;
41927;SDS011;27616;51.420;6.788;2023-02-23T09:56:44;83.40;;;36.47;;
41927;SDS011;27616;51.420;6.788;2023-02-23T09:59:12;84.77;;;37.20;;
41927;SDS011;27616;51.420;6.788;2023-02-23T10:07:13;91.23;;;37.17;;
41927;SDS011;27616;51.420;6.788;2023-02-23T10:10:21;95.77;;;38.13;;
41927;SDS011;27616;51.420;6.788;2023-02-23T10:13:03;86.27;;;35.97;;
41927;SDS011;27616;51.420;6.788;2023-02-23T10:15:38;87.30;;;34.57;;
41927;SDS011;27616;51.420;6.788;2023-02-23T10:20:45;87.27;;;35.10;;
41927;SDS011;27616;51.420;6.788;2023-02-23T10:26:04;84.27;;;35.03;;
41927;SDS011;27616;51.420;6.788;2023-02-23T10:28:34;77.10;;;33.60;;
41927;SDS011;27616;51.420;6.788;2023-02-23T10:31:00;76.33;;;33.03;;
41927;SDS011;27616;51.420;6.788;2023-02-23T10:33:33;72.93;;;31.63;;
41927;SDS011;27616;51.420;6.788;2023-02-23T10:36:10;79.00;;;32.73;;
41927;SDS011;27616;51.420;6.788;2023-02-23T10:38:41;78.07;;;31.63;;
41927;SDS011;27616;51.420;6.788;2023-02-23T10:41:07;76.30;;;32.00;;
41927;SDS011;27616;51.420;6.788;2023-02-23T10:43:34;74.17;;;31.27;;
41927;SDS011;27616;51.420;6.788;2023-02-23T10:45:59;82.77;;;33.43;;
41927;SDS011;27616;51.420;6.788;2023-02-23T10:48:28;81.70;;;34.60;;
41927;SDS011;27616;51.420;6.788;2023-02-23T10:50:59;80.47;;;32.90;;
41927;SDS011;27616;51.420;6.788;2023-02-23T10:53:33;79.40;;;34.40;;
41927;SDS011;27616;51.420;6.788;2023-02-23T10:58:42;78.80;;;33.27;;
41927;SDS011;27616;51.420;6.788;2023-02-23T11:01:11;79.57;;;33.97;;
41927;SDS011;27616;51.420;6.788;2023-02-23T11:04:15;72.73;;;30.73;;
41927;SDS011;27616;51.420;6.788;2023-02-23T11:06:42;71.45;;;30.17;;
41927;SDS011;27616;51.420;6.788;2023-02-23T11:09:27;72.17;;;29.23;;
41927;SDS011;27616;51.420;6.788;2023-02-23T11:14:26;62.60;;;27.87;;
41927;SDS011;27616;51.420;6.788;2023-02-23T11:16:54;67.90;;;28.30;;
41927;SDS011;27616;51.420;6.788;2023-02-23T11:19:42;63.37;;;27.80;;
41927;SDS011;27616;51.420;6.788;2023-02-23T11:22:07;71.17;;;28.73;;
41927;SDS011;27616;51.420;6.788;2023-02-23T11:24:47;66.83;;;28.37;;
41927;SDS011;27616;51.420;6.788;2023-02-23T11:27:21;67.33;;;29.23;;
41927;SDS011;27616;51.420;6.788;2023-02-23T11:29:50;66.33;;;27.87;;
41927;SDS011;27616;51.420;6.788;2023-02-23T11:32:19;64.70;;;27.65;;
41927;SDS011;27616;51.420;6.788;2023-02-23T11:37:36;57.13;;;25.23;;
41927;SDS011;27616;51.420;6.788;2023-02-23T11:40:16;56.90;;;24.03;;
41927;SDS011;27616;51.420;6.788;2023-02-23T11:42:52;49.17;;;23.57;;
41927;SDS011;27616;51.420;6.788;2023-02-23T11:45:31;53.97;;;24.00;;
41927;SDS011;27616;51.420;6.788;2023-02-23T11:48:14;55.07;;;26.00;;
41927;SDS011;27616;51.420;6.788;2023-02-23T11:50:47;52.67;;;24.93;;
41927;SDS011;27616;51.420;6.788;2023-02-23T11:53:14;53.60;;;23.83;;
41927;SDS011;27616;51.420;6.788;2023-02-23T11:55:50;53.67;;;24.10;;
41927;SDS011;27616;51.420;6.788;2023-02-23T11:58:36;55.47;;;24.03;;
41927;SDS011;27616;51.420;6.788;2023-02-23T12:01:04;58.97;;;25.07;;
41927;SDS011;27616;51.420;6.788;2023-02-23T12:03:41;55.93;;;23.57;;
41927;SDS011;27616;51.420;6.788;2023-02-23T12:06:11;55.30;;;24.07;;
41927;SDS011;27616;51.420;6.788;2023-02-23T12:08:50;48.78;;;22.92;;
41927;SDS011;27616;51.420;6.788;2023-02-23T12:11:22;50.07;;;22.93;;
41927;SDS011;27616;51.420;6.788;2023-02-23T12:13:59;44.87;;;20.47;;
41927;SDS011;27616;51.420;6.788;2023-02-23T12:16:32;43.77;;;18.97;;
41927;SDS011;27616;51.420;6.788;2023-02-23T12:21:49;36.57;;;17.13;;
41927;SDS011;27616;51.420;6.788;2023-02-23T12:27:10;38.23;;;18.23;;
41927;SDS011;27616;51.420;6.788;2023-02-23T12:32:18;36.93;;;17.60;;
41927;SDS011;27616;51.420;6.788;2023-02-23T12:35:05;37.77;;;17.93;;
41927;SDS011;27616;51.420;6.788;2023-02-23T12:37:42;41.10;;;19.00;;
41927;SDS011;27616;51.420;6.788;2023-02-23T12:40:18;37.13;;;18.30;;
41927;SDS011;27616;51.420;6.788;2023-02-23T12:42:53;35.60;;;16.93;;
41927;SDS011;27616;51.420;6.788;2023-02-23T12:45:44;38.87;;;17.90;;
41927;SDS011;27616;51.420;6.788;2023-02-23T12:48:19;37.47;;;17.63;;
41927;SDS011;27616;51.420;6.788;2023-02-23T12:50:56;38.08;;;17.80;;
41927;SDS011;27616;51.420;6.788;2023-02-23T12:53:38;34.85;;;17.85;;
41927;SDS011;27616;51.420;6.788;2023-02-23T12:56:13;36.77;;;17.67;;
41927;SDS011;27616;51.420;6.788;2023-02-23T13:09:54;36.27;;;18.13;;
41927;SDS011;27616;51.420;6.788;2023-02-23T13:15:34;35.60;;;17.13;;
41927;SDS011;27616;51.420;6.788;2023-02-23T13:18:26;33.83;;;17.03;;
41927;SDS011;27616;51.420;6.788;2023-02-23T13:21:06;38.23;;;18.63;;
41927;SDS011;27616;51.420;6.788;2023-02-23T13:24:06;35.37;;;17.03;;
41927;SDS011;27616;51.420;6.788;2023-02-23T13:29:44;33.73;;;17.43;;
41927;SDS011;27616;51.420;6.788;2023-02-23T13:34:53;38.53;;;18.33;;
41927;SDS011;27616;51.420;6.788;2023-02-23T13:37:33;37.13;;;17.38;;
41927;SDS011;27616;51.420;6.788;2023-02-23T13:56:25;37.47;;;16.87;;
41927;SDS011;27616;51.420;6.788;2023-02-23T13:59:03;36.75;;;16.88;;
41927;SDS011;27616;51.420;6.788;2023-02-23T14:01:39;32.97;;;14.90;;
41927;SDS011;27616;51.420;6.788;2023-02-23T14:04:13;38.37;;;17.30;;
41927;SDS011;27616;51.420;6.788;2023-02-23T14:06:48;37.37;;;17.17;;
41927;SDS011;27616;51.420;6.788;2023-02-23T14:09:36;35.17;;;16.43;;
41927;SDS011;27616;51.420;6.788;2023-02-23T14:20:56;41.00;;;18.70;;
41927;SDS011;27616;51.420;6.788;2023-02-23T14:23:34;43.10;;;19.77;;
41927;SDS011;27616;51.420;6.788;2023-02-23T14:29:09;44.87;;;19.00;;
41927;SDS011;27616;51.420;6.788;2023-02-23T14:32:01;40.57;;;19.10;;
41927;SDS011;27616;51.420;6.788;2023-02-23T14:34:47;42.67;;;18.37;;
41927;SDS011;27616;51.420;6.788;2023-02-23T14:40:00;46.57;;;21.77;;
41927;SDS011;27616;51.420;6.788;2023-02-23T14:42:35;49.37;;;21.83;;
41927;SDS011;27616;51.420;6.788;2023-02-23T14:45:04;47.03;;;21.23;;
41927;SDS011;27616;51.420;6.788;2023-02-23T14:48:04;47.55;;;22.77;;
41927;SDS011;27616;51.420;6.788;2023-02-23T14:50:34;48.80;;;21.90;;
41927;SDS011;27616;51.420;6.788;2023-02-23T14:53:02;51.60;;;22.53;;
41927;SDS011;27616;51.420;6.788;2023-02-23T14:55:31;52.28;;;23.85;;
41927;SDS011;27616;51.420;6.788;2023-02-23T14:58:01;52.97;;;22.27;;
41927;SDS011;27616;51.420;6.788;2023-02-23T15:00:29;51.63;;;22.97;;
41927;SDS011;27616;51.420;6.788;2023-02-23T15:03:04;51.80;;;22.33;;
41927;SDS011;27616;51.420;6.788;2023-02-23T15:05:57;48.47;;;22.37;;
41927;SDS011;27616;51.420;6.788;2023-02-23T15:08:25;53.35;;;24.67;;
41927;SDS011;27616;51.420;6.788;2023-02-23T15:10:58;50.17;;;22.98;;
41927;SDS011;27616;51.420;6.788;2023-02-23T15:13:28;54.93;;;24.63;;
41927;SDS011;27616;51.420;6.788;2023-02-23T15:15:57;55.70;;;25.50;;
41927;SDS011;27616;51.420;6.788;2023-02-23T15:21:55;49.33;;;22.43;;
41927;SDS011;27616;51.420;6.788;2023-02-23T15:24:27;50.25;;;23.13;;
41927;SDS011;27616;51.420;6.788;2023-02-23T15:26:57;50.23;;;23.00;;
41927;SDS011;27616;51.420;6.788;2023-02-23T15:29:30;49.03;;;21.53;;
41927;SDS011;27616;51.420;6.788;2023-02-23T15:32:09;52.53;;;23.40;;
41927;SDS011;27616;51.420;6.788;2023-02-23T15:34:43;49.70;;;22.07;;
41927;SDS011;27616;51.420;6.788;2023-02-23T15:37:13;58.07;;;23.13;;
41927;SDS011;27616;51.420;6.788;2023-02-23T15:40:00;50.53;;;20.90;;
41927;SDS011;27616;51.420;6.788;2023-02-23T15:42:46;46.27;;;20.10;;
41927;SDS011;27616;51.420;6.788;2023-02-23T15:48:02;41.70;;;18.60;;
41927;SDS011;27616;51.420;6.788;2023-02-23T15:50:40;42.13;;;18.03;;
41927;SDS011;27616;51.420;6.788;2023-02-23T15:53:09;42.17;;;19.00;;
41927;SDS011;27616;51.420;6.788;2023-02-23T15:55:52;41.90;;;18.00;;
41927;SDS011;27616;51.420;6.788;2023-02-23T15:58:30;42.10;;;19.20;;
41927;SDS011;27616;51.420;6.788;2023-02-23T16:01:07;40.63;;;18.00;;
41927;SDS011;27616;51.420;6.788;2023-02-23T16:03:44;42.70;;;17.17;;
41927;SDS011;27616;51.420;6.788;2023-02-23T16:08:55;40.53;;;16.53;;
41927;SDS011;27616;51.420;6.788;2023-02-23T16:11:23;37.27;;;16.40;;
41927;SDS011;27616;51.420;6.788;2023-02-23T16:13:50;31.17;;;13.93;;
41927;SDS011;27616;51.420;6.788;2023-02-23T16:16:17;28.87;;;12.77;;
41927;SDS011;27616;51.420;6.788;2023-02-23T16:18:53;26.93;;;12.07;;
41927;SDS011;27616;51.420;6.788;2023-02-23T16:21:26;32.33;;;13.33;;
41927;SDS011;27616;51.420;6.788;2023-02-23T16:23:57;28.87;;;12.23;;
41927;SDS011;27616;51.420;6.788;2023-02-23T16:26:37;27.45;;;12.05;;
41927;SDS011;27616;51.420;6.788;2023-02-23T16:29:12;30.87;;;13.70;;
41927;SDS011;27616;51.420;6.788;2023-02-23T16:31:43;32.27;;;13.67;;
41927;SDS011;27616;51.420;6.788;2023-02-23T16:37:14;34.57;;;13.90;;
41927;SDS011;27616;51.420;6.788;2023-02-23T16:39:47;35.10;;;14.37;;
41927;SDS011;27616;51.420;6.788;2023-02-23T16:44:57;36.33;;;14.70;;
41927;SDS011;27616;51.420;6.788;2023-02-23T16:50:01;39.67;;;15.20;;
41927;SDS011;27616;51.420;6.788;2023-02-23T16:52:42;34.90;;;15.27;;
41927;SDS011;27616;51.420;6.788;2023-02-23T16:55:14;32.70;;;14.13;;
41927;SDS011;27616;51.420;6.788;2023-02-23T16:57:41;34.90;;;14.60;;
41927;SDS011;27616;51.420;6.788;2023-02-23T17:00:09;43.63;;;14.50;;
41927;SDS011;27616;51.420;6.788;2023-02-23T17:02:45;32.97;;;13.80;;
41927;SDS011;27616;51.420;6.788;2023-02-23T17:05:14;33.40;;;14.32;;
41927;SDS011;27616;51.420;6.788;2023-02-23T17:07:44;36.70;;;14.47;;
41927;SDS011;27616;51.420;6.788;2023-02-23T17:10:23;38.47;;;14.13;;
41927;SDS011;27616;51.420;6.788;2023-02-23T17:12:52;33.65;;;13.60;;